Time;durP1;ratioP1;P1;durP2;ratioP2;P2;SDS_P1;SDS_P2;PMS_P1;PMS_P2;Temp;Humidity;BMP_temperature;BMP_pressure;BME280_temperature;BME280_humidity;BME280_pressure;Samples;Min_cycle;Max_cycle;Signal;HPM_P1;HPM_P2
2022/02/01 00:02:35;;;;;;;20.00;3.70;;;2.70;99.90;;;;;;4942176;28;20035;-76
2022/02/01 00:05:13;;;;;;;17.23;3.53;;;2.80;99.90;;;;;;4963408;28;20110;-76
2022/02/01 00:10:19;;;;;;;21.52;3.13;;;3.00;99.90;;;;;;4962769;28;20066;-77
2022/02/01 00:18:28;;;;;;;13.13;2.88;;;3.10;99.90;;;;;;4920106;29;20055;-76
2022/02/01 00:37:17;;;;;;;11.85;2.85;;;3.20;99.90;;;;;;4961937;28;20078;-77
2022/02/01 00:39:44;;;;;;;18.88;3.20;;;3.20;99.90;;;;;;4964116;28;20055;-77
2022/02/01 00:42:12;;;;;;;16.10;2.80;;;3.20;99.90;;;;;;4962867;28;20076;-77
2022/02/01 00:44:39;;;;;;;19.85;3.10;;;3.20;99.90;;;;;;4961250;28;20101;-77
2022/02/01 00:47:05;;;;;;;15.43;3.25;;;3.10;99.90;;;;;;4967773;28;20098;-77
2022/02/01 00:49:33;;;;;;;21.00;3.15;;;3.20;99.90;;;;;;4959129;28;20051;-77
2022/02/01 00:51:59;;;;;;;15.30;3.00;;;3.10;99.90;;;;;;4968838;28;20056;-76
2022/02/01 00:54:24;;;;;;;18.98;3.63;;;3.10;99.90;;;;;;4958117;28;20141;-76
2022/02/01 00:56:50;;;;;;;12.48;2.70;;;3.10;99.90;;;;;;4963582;28;20062;-76
2022/02/01 00:59:16;;;;;;;25.38;3.90;;;3.10;99.90;;;;;;4943859;29;20078;-76
2022/02/01 01:01:41;;;;;;;18.75;3.08;;;3.10;99.90;;;;;;4945127;29;20046;-76
2022/02/01 01:04:07;;;;;;;19.20;3.47;;;3.00;99.90;;;;;;4960939;28;20120;-77
2022/02/01 01:06:33;;;;;;;21.52;3.67;;;3.00;99.90;;;;;;4940350;28;20027;-77
2022/02/01 01:08:59;;;;;;;21.08;3.78;;;3.00;99.90;;;;;;4953503;28;20498;-77
2022/02/01 01:11:24;;;;;;;19.83;3.58;;;3.00;99.90;;;;;;4963835;28;20036;-76
2022/02/01 01:38:43;;;;;;;21.63;3.95;;;2.90;99.90;;;;;;4922756;29;20036;-77
2022/02/01 01:43:45;;;;;;;13.90;2.38;;;2.90;99.90;;;;;;4923622;29;20047;-77
2022/02/01 01:54:16;;;;;;;19.85;3.00;;;3.00;99.90;;;;;;4910955;29;20043;-76
2022/02/01 01:56:43;;;;;;;13.52;2.50;;;3.00;99.90;;;;;;4924016;29;20113;-76
2022/02/01 01:59:10;;;;;;;17.40;3.25;;;3.00;99.90;;;;;;4922578;29;20119;-76
2022/02/01 02:01:37;;;;;;;15.45;3.47;;;3.00;99.90;;;;;;4921371;29;20462;-77
2022/02/01 02:04:03;;;;;;;16.10;3.08;;;3.00;99.90;;;;;;4923533;29;20028;-76
2022/02/01 02:06:33;;;;;;;14.15;2.85;;;3.00;99.90;;;;;;4921376;29;20036;-76
2022/02/01 02:09:04;;;;;;;20.13;2.80;;;3.10;99.90;;;;;;4924400;29;20028;-76
2022/02/01 02:11:40;;;;;;;;;;;3.10;99.90;;;;;;4921624;29;20032;-76
2022/02/01 02:14:24;;;;;;;15.90;2.58;;;3.10;99.90;;;;;;4949586;28;19960;-76
2022/02/01 02:16:55;;;;;;;15.48;2.50;;;3.20;99.90;;;;;;4959798;28;20031;-77
2022/02/01 02:19:22;;;;;;;13.35;2.85;;;3.20;99.90;;;;;;4955311;28;20023;-76
2022/02/01 02:21:54;;;;;;;17.48;2.67;;;3.20;99.90;;;;;;4960971;28;20031;-76
2022/02/01 02:24:20;;;;;;;;;;;3.20;99.90;;;;;;4960087;28;20090;-76
2022/02/01 02:26:48;;;;;;;16.45;2.28;;;3.30;99.90;;;;;;4966101;28;19938;-76
2022/02/01 02:29:14;;;;;;;13.02;2.05;;;3.30;99.90;;;;;;4962570;28;20423;-77
2022/02/01 02:31:40;;;;;;;13.70;2.53;;;3.30;99.90;;;;;;4946017;28;20027;-77
2022/02/01 02:34:11;;;;;;;16.45;2.55;;;3.30;99.90;;;;;;4960627;28;20031;-77
2022/02/01 02:36:43;;;;;;;13.47;2.53;;;3.30;99.90;;;;;;4958008;28;20492;-77
2022/02/01 02:47:08;;;;;;;13.52;2.35;;;3.30;99.90;;;;;;4960181;28;20570;-77
2022/02/01 02:49:34;;;;;;;12.70;2.28;;;3.40;99.90;;;;;;4966536;28;20081;-77
2022/02/01 02:52:00;;;;;;;13.32;2.45;;;3.40;99.90;;;;;;4956162;28;20110;-77
2022/02/01 02:54:27;;;;;;;16.27;3.35;;;3.50;99.90;;;;;;4967372;28;20450;-77
2022/02/01 02:57:08;;;;;;;15.20;3.00;;;3.40;99.90;;;;;;4960541;28;20031;-77
2022/02/01 02:59:35;;;;;;;10.68;2.70;;;3.50;99.90;;;;;;4948400;29;20043;-91
2022/02/01 03:02:01;;;;;;;17.52;2.92;;;3.50;99.90;;;;;;4959635;28;20104;-96
2022/02/01 03:04:31;;;;;;;13.57;2.33;;;3.50;99.90;;;;;;4958447;28;20031;-90
2022/02/01 03:06:58;;;;;;;16.98;2.45;;;3.60;99.90;;;;;;4958847;28;20031;-91
2022/02/01 03:09:25;;;;;;;16.92;2.90;;;3.60;99.90;;;;;;4961509;28;20050;-88
2022/02/01 03:11:53;;;;;;;14.55;2.03;;;3.60;99.90;;;;;;4967361;28;20035;-88
2022/02/01 03:16:59;;;;;;;13.52;2.45;;;3.60;99.90;;;;;;4963506;28;20039;-90
2022/02/01 03:22:09;;;;;;;15.40;2.83;;;3.60;99.90;;;;;;4954898;28;20038;-90
2022/02/01 03:24:35;;;;;;;13.18;2.58;;;3.50;99.90;;;;;;4961510;28;20039;-90
2022/02/01 03:27:01;;;;;;;13.90;1.85;;;3.50;99.90;;;;;;4946422;29;20083;-90
2022/02/01 03:29:27;;;;;;;8.95;2.03;;;3.40;99.90;;;;;;4946907;28;20105;-89
2022/02/01 03:31:52;;;;;;;12.77;1.95;;;3.40;99.90;;;;;;4964739;28;20678;-89
2022/02/01 03:34:18;;;;;;;10.82;1.83;;;3.40;99.90;;;;;;4962485;28;20062;-91
2022/02/01 03:36:44;;;;;;;12.23;2.10;;;3.30;99.90;;;;;;4970688;28;20019;-91
2022/02/01 03:39:10;;;;;;;9.35;1.40;;;3.30;99.90;;;;;;4951410;29;20121;-90
2022/02/01 03:41:36;;;;;;;9.38;1.80;;;3.30;99.90;;;;;;4954322;29;20023;-90
2022/02/01 03:44:05;;;;;;;12.02;1.75;;;3.30;99.90;;;;;;4947573;29;20055;-90
2022/02/01 03:46:31;;;;;;;7.28;1.50;;;3.20;99.90;;;;;;4962512;28;20031;-90
2022/02/01 03:48:57;;;;;;;9.60;1.88;;;3.20;99.90;;;;;;4946193;29;20039;-89
2022/02/01 03:51:23;;;;;;;12.23;1.83;;;3.20;99.90;;;;;;4974382;28;20047;-88
2022/02/01 03:53:49;;;;;;;11.07;1.65;;;3.20;99.90;;;;;;4964042;28;20035;-89
2022/02/01 03:56:15;;;;;;;12.05;1.90;;;3.20;99.90;;;;;;4964653;28;20099;-91
2022/02/01 03:58:40;;;;;;;11.30;1.90;;;3.20;99.90;;;;;;4962225;28;20042;-89
2022/02/01 04:01:06;;;;;;;13.88;1.75;;;3.30;99.90;;;;;;4951798;28;20031;-90
2022/02/01 04:03:32;;;;;;;9.32;1.83;;;3.30;99.90;;;;;;4948219;29;20373;-90
2022/02/01 04:05:58;;;;;;;10.25;1.30;;;3.30;99.90;;;;;;4958589;28;20062;-89
2022/02/01 04:08:24;;;;;;;9.65;1.90;;;3.30;99.90;;;;;;4950902;28;20027;-89
2022/02/01 04:10:51;;;;;;;11.85;1.65;;;3.40;99.90;;;;;;4949306;28;20085;-88
2022/02/01 04:13:17;;;;;;;9.38;1.40;;;3.30;99.90;;;;;;4969228;28;20102;-88
2022/02/01 04:15:43;;;;;;;14.95;2.33;;;3.40;99.90;;;;;;4943944;29;20024;-88
2022/02/01 04:18:10;;;;;;;11.55;1.60;;;3.40;99.90;;;;;;4953498;29;20038;-88
2022/02/01 04:20:35;;;;;;;9.65;2.13;;;3.50;99.90;;;;;;4965245;28;20095;-88
2022/02/01 04:23:01;;;;;;;10.95;1.92;;;3.50;99.90;;;;;;4942097;29;20032;-87
2022/02/01 04:25:27;;;;;;;10.82;1.50;;;3.50;99.90;;;;;;4944909;28;20032;-87
2022/02/01 04:27:53;;;;;;;7.93;1.83;;;3.50;99.90;;;;;;4940687;28;20043;-88
2022/02/01 04:30:20;;;;;;;10.88;1.58;;;3.50;99.90;;;;;;4930511;28;20054;-87
2022/02/01 04:32:51;;;;;;;11.50;1.63;;;3.50;99.90;;;;;;4944572;28;20027;-87
2022/02/01 04:35:19;;;;;;;8.43;1.77;;;3.60;99.90;;;;;;4945176;29;20079;-89
2022/02/01 04:37:45;;;;;;;8.57;1.20;;;3.50;99.90;;;;;;4970020;28;20130;-89
2022/02/01 04:40:17;;;;;;;10.18;1.77;;;3.50;99.90;;;;;;4952029;29;20058;-88
2022/02/01 04:42:43;;;;;;;9.93;1.88;;;3.60;99.90;;;;;;4961559;28;20016;-88
2022/02/01 04:45:13;;;;;;;9.98;1.88;;;3.60;99.90;;;;;;4958938;28;20043;-87
2022/02/01 04:47:39;;;;;;;9.65;1.90;;;3.60;99.90;;;;;;4979263;28;20495;-88
2022/02/01 04:50:11;;;;;;;11.07;1.65;;;3.60;99.90;;;;;;4941294;28;20595;-88
2022/02/01 04:52:39;;;;;;;8.55;2.15;;;3.70;99.90;;;;;;4968074;28;20111;-88
2022/02/01 04:55:05;;;;;;;8.88;1.73;;;3.70;99.90;;;;;;4962378;28;20098;-87
2022/02/01 04:57:31;;;;;;;10.27;1.70;;;3.70;99.90;;;;;;4949756;28;20524;-87
2022/02/01 04:59:56;;;;;;;6.53;1.67;;;3.70;99.90;;;;;;4962632;28;20039;-86
2022/02/01 05:02:22;;;;;;;11.60;2.25;;;3.80;99.90;;;;;;4937377;29;20059;-89
2022/02/01 05:04:48;;;;;;;12.98;2.17;;;3.80;99.90;;;;;;4948884;28;20039;-89
2022/02/01 05:07:14;;;;;;;10.55;2.13;;;3.80;99.90;;;;;;4949262;29;20058;-94
2022/02/01 05:09:39;;;;;;;13.52;2.17;;;3.80;99.90;;;;;;4966957;28;20464;-93
2022/02/01 05:12:08;;;;;;;13.75;2.33;;;3.90;99.90;;;;;;4961475;28;20042;-95
2022/02/01 05:14:34;;;;;;;14.63;2.75;;;3.90;99.90;;;;;;4961463;28;20086;-92
2022/02/01 05:17:02;;;;;;;13.77;1.90;;;3.90;99.90;;;;;;4961401;28;20036;-91
2022/02/01 05:19:45;;;;;;;10.65;1.92;;;3.90;99.90;;;;;;4949809;29;20103;-90
2022/02/01 05:22:15;;;;;;;12.50;2.63;;;4.00;99.90;;;;;;4953404;28;20074;-91
2022/02/01 05:24:41;;;;;;;19.23;4.10;;;3.90;99.90;;;;;;4961585;28;20404;-92
2022/02/01 05:27:10;;;;;;;12.25;2.53;;;4.00;99.90;;;;;;4973730;28;20019;-91
2022/02/01 05:29:37;;;;;;;9.75;2.42;;;4.00;99.90;;;;;;4947308;28;20126;-91
2022/02/01 05:32:17;;;;;;;15.35;2.60;;;4.00;99.90;;;;;;4963047;28;20035;-90
2022/02/01 05:34:43;;;;;;;11.13;2.53;;;4.00;99.90;;;;;;4958117;28;20330;-91
2022/02/01 05:37:08;;;;;;;15.25;3.38;;;4.00;99.90;;;;;;4949489;28;20059;-91
2022/02/01 05:39:34;;;;;;;13.05;2.40;;;4.00;99.90;;;;;;4950087;29;20118;-92
2022/02/01 05:42:00;;;;;;;12.43;3.05;;;4.00;99.90;;;;;;4943750;29;20069;-93
2022/02/01 05:44:25;;;;;;;12.45;2.58;;;4.10;99.90;;;;;;4964947;28;20037;-91
2022/02/01 05:46:51;;;;;;;12.82;2.85;;;4.10;99.90;;;;;;4963036;28;20045;-85
2022/02/01 05:49:18;;;;;;;14.50;3.42;;;4.10;99.90;;;;;;4967024;28;20034;-89
2022/02/01 05:51:44;;;;;;;17.17;4.35;;;4.10;99.90;;;;;;4965267;28;20055;-90
2022/02/01 05:54:09;;;;;;;13.80;2.60;;;4.20;99.90;;;;;;4944389;29;20449;-88
2022/02/01 05:56:35;;;;;;;17.90;2.85;;;4.20;99.90;;;;;;4975314;28;20109;-88
2022/02/01 05:59:00;;;;;;;18.75;2.60;;;4.20;99.90;;;;;;4961375;28;20027;-88
2022/02/01 06:01:26;;;;;;;16.83;2.65;;;4.20;99.90;;;;;;4968240;28;20055;-89
2022/02/01 06:03:52;;;;;;;14.35;3.00;;;4.30;99.90;;;;;;4930890;28;20038;-88
2022/02/01 06:06:18;;;;;;;9.82;2.80;;;4.30;99.90;;;;;;4941990;29;20035;-89
2022/02/01 06:08:43;;;;;;;15.50;2.97;;;4.20;99.90;;;;;;4945436;29;20034;-89
2022/02/01 06:11:09;;;;;;;14.45;2.80;;;4.20;99.90;;;;;;4961576;28;20051;-88
2022/02/01 06:13:36;;;;;;;15.38;3.15;;;4.30;99.90;;;;;;4972953;28;20074;-88
2022/02/01 06:16:06;;;;;;;18.75;2.97;;;4.30;99.90;;;;;;4958327;28;20032;-89
2022/02/01 06:18:32;;;;;;;16.45;3.45;;;4.40;99.90;;;;;;4959757;29;20107;-90
2022/02/01 06:21:00;;;;;;;21.75;4.82;;;4.40;99.90;;;;;;4961349;28;20329;-91
2022/02/01 06:23:26;;;;;;;19.38;3.28;;;4.40;99.90;;;;;;4932602;29;20041;-89
2022/02/01 06:25:57;;;;;;;19.90;3.67;;;4.40;99.90;;;;;;4965612;28;20094;-89
2022/02/01 06:28:25;;;;;;;15.73;3.20;;;4.40;99.90;;;;;;4964314;28;20039;-88
2022/02/01 06:30:51;;;;;;;17.80;3.60;;;4.40;99.90;;;;;;4950598;29;20046;-89
2022/02/01 06:33:18;;;;;;;25.27;3.60;;;4.40;99.90;;;;;;4944605;29;20141;-89
2022/02/01 06:35:44;;;;;;;14.57;3.15;;;4.40;99.90;;;;;;4960389;28;20027;-88
2022/02/01 06:38:11;;;;;;;14.55;2.97;;;4.40;99.90;;;;;;4958463;28;20031;-91
2022/02/01 06:40:37;;;;;;;14.55;3.28;;;4.40;99.90;;;;;;4972589;28;20030;-91
2022/02/01 06:43:04;;;;;;;16.35;3.38;;;4.40;99.90;;;;;;4961967;28;20081;-89
2022/02/01 06:45:30;;;;;;;13.13;3.63;;;4.40;99.90;;;;;;4951422;28;20667;-89
2022/02/01 06:47:56;;;;;;;19.42;3.70;;;4.40;99.90;;;;;;4958677;28;20034;-90
2022/02/01 06:50:22;;;;;;;21.98;4.13;;;4.40;99.90;;;;;;4959788;28;20043;-90
2022/02/01 06:52:55;;;;;;;17.23;4.07;;;4.50;99.90;;;;;;4962421;28;20050;-87
2022/02/01 06:55:32;;;;;;;17.77;4.25;;;4.50;99.90;;;;;;4944553;28;20545;-91
2022/02/01 06:57:59;;;;;;;22.85;4.85;;;4.40;99.90;;;;;;4958321;28;20099;-93
2022/02/01 07:00:25;;;;;;;17.33;4.60;;;4.40;99.90;;;;;;4960226;28;20057;-86
2022/02/01 07:02:50;;;;;;;16.50;4.10;;;4.40;99.90;;;;;;4944320;28;20027;-88
2022/02/01 07:05:16;;;;;;;18.25;4.45;;;4.50;99.90;;;;;;4926428;29;20038;-86
2022/02/01 07:07:42;;;;;;;17.00;4.10;;;4.40;99.90;;;;;;4939599;29;20024;-93
2022/02/01 07:10:08;;;;;;;16.38;3.55;;;4.40;99.90;;;;;;4950898;29;20032;-91
2022/02/01 07:12:33;;;;;;;19.23;4.25;;;4.50;99.90;;;;;;4959677;29;20038;-92
2022/02/01 07:14:59;;;;;;;15.88;3.85;;;4.40;99.90;;;;;;4954654;29;20083;-90
2022/02/01 07:17:25;;;;;;;21.30;4.55;;;4.40;99.90;;;;;;4944579;29;20419;-91
2022/02/01 07:19:50;;;;;;;24.27;5.22;;;4.40;99.90;;;;;;4945098;29;20051;-92
2022/02/01 07:22:16;;;;;;;21.10;5.55;;;4.50;99.90;;;;;;4955078;28;20044;-95
2022/02/01 07:24:56;;;;;;;17.70;4.82;;;4.40;99.90;;;;;;4961758;28;20031;-95
2022/02/01 07:27:37;;;;;;;26.10;5.47;;;4.40;99.90;;;;;;4958688;28;20031;-92
2022/02/01 07:30:10;;;;;;;20.48;5.40;;;4.40;99.90;;;;;;4947515;28;20034;-91
2022/02/01 07:32:35;;;;;;;17.65;5.20;;;4.50;99.90;;;;;;4964251;28;20095;-90
2022/02/01 07:35:03;;;;;;;18.33;5.40;;;4.40;99.90;;;;;;4942830;28;20051;-91
2022/02/01 07:37:34;;;;;;;18.42;5.50;;;4.40;99.90;;;;;;4945327;29;20031;-90
2022/02/01 07:40:02;;;;;;;15.82;5.35;;;4.50;99.90;;;;;;4945137;29;20038;-92
2022/02/01 07:42:28;;;;;;;32.03;6.47;;;4.50;99.90;;;;;;4949235;28;20039;-94
2022/02/01 07:44:59;;;;;;;21.42;6.72;;;4.50;99.90;;;;;;4939204;29;20047;-93
2022/02/01 07:47:25;;;;;;;18.60;7.32;;;4.50;99.90;;;;;;4953493;29;20027;-90
2022/02/01 07:49:51;;;;;;;21.67;6.15;;;4.50;99.90;;;;;;4967005;28;20097;-91
2022/02/01 07:52:17;;;;;;;15.82;6.15;;;4.60;99.90;;;;;;4964373;28;20031;-92
2022/02/01 07:54:44;;;;;;;16.45;6.57;;;4.60;99.90;;;;;;4949920;28;20072;-91
2022/02/01 07:57:10;;;;;;;18.92;6.20;;;4.60;99.90;;;;;;4965156;28;20027;-92
2022/02/01 07:59:36;;;;;;;21.00;6.88;;;4.60;99.90;;;;;;4948516;28;20490;-91
2022/02/01 08:02:04;;;;;;;16.70;7.43;;;4.60;99.90;;;;;;4951706;29;20027;-91
2022/02/01 08:04:34;;;;;;;14.50;6.55;;;4.70;99.90;;;;;;4948490;29;20058;-91
2022/02/01 08:07:01;;;;;;;18.33;7.25;;;4.70;99.90;;;;;;4965539;28;20041;-92
2022/02/01 08:09:34;;;;;;;19.45;6.72;;;4.70;99.90;;;;;;4946837;29;20156;-93
2022/02/01 08:12:01;;;;;;;16.17;6.45;;;4.70;99.90;;;;;;4948486;28;20027;-92
2022/02/01 08:15:59;;;;;;;13.88;6.38;;;4.70;99.90;;;;;;4969099;28;20111;-92
2022/02/01 08:20:01;;;;;;;15.20;6.97;;;4.80;99.90;;;;;;4958797;29;20043;-92
2022/02/01 08:22:38;;;;;;;15.05;6.65;;;4.80;99.90;;;;;;4929797;29;20481;-93
2022/02/01 08:25:07;;;;;;;13.15;6.05;;;4.80;99.90;;;;;;4944744;29;20019;-95
2022/02/01 08:27:34;;;;;;;14.05;6.57;;;4.90;99.90;;;;;;4956970;29;20505;-90
2022/02/01 08:30:05;;;;;;;13.65;6.43;;;4.90;99.90;;;;;;4944955;29;20031;-95
2022/02/01 08:32:30;;;;;;;14.25;6.60;;;4.90;99.90;;;;;;4968335;28;20230;-91
2022/02/01 08:34:56;;;;;;;13.85;6.47;;;4.90;99.90;;;;;;4944235;29;20059;-92
2022/02/01 08:37:23;;;;;;;14.25;7.00;;;5.00;99.90;;;;;;4937530;29;20087;-93
2022/02/01 08:39:49;;;;;;;15.13;7.03;;;5.00;99.90;;;;;;4956720;28;20032;-91
2022/02/01 08:42:16;;;;;;;13.10;7.30;;;5.00;99.90;;;;;;4943223;29;20027;-93
2022/02/01 08:44:43;;;;;;;16.13;7.50;;;5.10;99.90;;;;;;4945998;28;20078;-91
2022/02/01 08:47:10;;;;;;;15.18;7.93;;;5.10;99.90;;;;;;4952867;29;20028;-94
2022/02/01 08:49:36;;;;;;;15.77;8.00;;;5.10;99.90;;;;;;4966553;28;20036;-94
2022/02/01 08:52:20;;;;;;;16.17;8.57;;;5.10;99.90;;;;;;4923211;29;20035;-94
2022/02/01 08:54:50;;;;;;;16.80;8.25;;;5.20;99.90;;;;;;4954381;29;20024;-94
2022/02/01 08:57:22;;;;;;;14.32;8.02;;;5.20;99.90;;;;;;4957238;29;20133;-92
2022/02/01 08:59:50;;;;;;;15.88;8.93;;;5.20;99.90;;;;;;4948833;28;20050;-90
2022/02/01 09:02:17;;;;;;;16.35;8.90;;;5.20;99.90;;;;;;4960676;28;20024;-92
2022/02/01 09:04:43;;;;;;;13.98;8.60;;;5.20;99.90;;;;;;4952923;29;20031;-90
2022/02/01 09:07:09;;;;;;;15.23;8.55;;;5.30;99.90;;;;;;4946639;29;20121;-90
2022/02/01 09:09:36;;;;;;;17.58;8.90;;;5.30;99.90;;;;;;4950601;29;20117;-91
2022/02/01 09:12:03;;;;;;;15.73;8.38;;;5.40;99.90;;;;;;4935031;29;20023;-90
2022/02/01 09:14:30;;;;;;;14.70;7.93;;;5.40;99.90;;;;;;4960788;28;20074;-90
2022/02/01 09:16:56;;;;;;;14.52;7.60;;;5.40;99.90;;;;;;4957444;29;20328;-89
2022/02/01 09:19:22;;;;;;;16.90;8.30;;;5.50;99.90;;;;;;4960931;28;20368;-90
2022/02/01 09:21:48;;;;;;;15.45;7.63;;;5.60;99.90;;;;;;4963590;28;20027;-92
2022/02/01 09:24:13;;;;;;;17.13;8.02;;;5.60;99.90;;;;;;4956727;28;20071;-92
2022/02/01 09:26:39;;;;;;;11.93;6.80;;;5.60;99.90;;;;;;4936511;29;20023;-90
2022/02/01 09:29:07;;;;;;;14.70;6.97;;;5.70;99.90;;;;;;4952006;28;20035;-91
2022/02/01 09:31:33;;;;;;;10.77;6.05;;;5.70;99.90;;;;;;4955042;28;20042;-89
2022/02/01 09:33:58;;;;;;;13.02;7.05;;;5.70;99.90;;;;;;4942218;29;20028;-86
2022/02/01 09:36:24;;;;;;;13.18;6.47;;;5.80;99.90;;;;;;4929026;28;20035;-88
2022/02/01 09:38:52;;;;;;;10.73;5.85;;;5.80;99.90;;;;;;4968168;28;20086;-87
2022/02/01 09:41:18;;;;;;;12.43;6.57;;;5.90;99.90;;;;;;4962766;28;20034;-87
2022/02/01 09:43:44;;;;;;;10.77;5.55;;;5.90;99.90;;;;;;4936376;29;20023;-87
2022/02/01 09:46:10;;;;;;;10.52;5.90;;;6.00;99.90;;;;;;4936062;29;20381;-86
2022/02/01 09:48:36;;;;;;;10.60;5.05;;;6.00;99.90;;;;;;4952513;29;20035;-88
2022/02/01 09:51:04;;;;;;;9.52;4.60;;;6.10;99.90;;;;;;4942126;28;20043;-87
2022/02/01 09:53:30;;;;;;;9.50;4.20;;;6.10;99.90;;;;;;4947920;29;20461;-87
2022/02/01 09:55:56;;;;;;;7.15;3.70;;;6.20;99.90;;;;;;4947810;28;20027;-88
2022/02/01 09:58:34;;;;;;;8.38;3.13;;;6.30;99.90;;;;;;4947931;28;20023;-87
2022/02/01 10:01:02;;;;;;;6.97;3.10;;;6.30;99.90;;;;;;4966523;28;20031;-86
2022/02/01 10:03:28;;;;;;;5.95;2.60;;;6.40;99.90;;;;;;4963174;28;20027;-86
2022/02/01 10:06:11;;;;;;;5.68;2.40;;;6.50;99.90;;;;;;4950108;28;20032;-87
2022/02/01 10:08:39;;;;;;;6.25;2.53;;;6.50;99.90;;;;;;4966422;28;20058;-87
2022/02/01 10:11:10;;;;;;;6.18;2.38;;;6.60;99.90;;;;;;4974426;28;20046;-87
2022/02/01 10:13:42;;;;;;;6.05;2.47;;;6.70;99.90;;;;;;4946009;29;20062;-88
2022/02/01 10:16:36;;;;;;;4.85;1.83;;;6.70;99.90;;;;;;4963634;28;20035;-90
2022/02/01 10:19:11;;;;;;;5.40;2.03;;;6.70;99.90;;;;;;4956701;29;20054;-90
2022/02/01 10:21:57;;;;;;;5.95;2.03;;;6.80;99.90;;;;;;4959229;29;20058;-90
2022/02/01 10:24:33;;;;;;;5.97;2.20;;;6.80;99.90;;;;;;4960396;29;20038;-89
2022/02/01 10:27:13;;;;;;;5.60;2.20;;;6.80;99.90;;;;;;4941811;29;20034;-88
2022/02/01 10:30:04;;;;;;;5.13;2.17;;;6.90;99.90;;;;;;4958471;29;20039;-89
2022/02/01 10:33:54;;;;;;;6.15;2.30;;;6.90;99.90;;;;;;4942093;29;20019;-90
2022/02/01 10:38:17;;;;;;;4.78;1.90;;;6.90;99.90;;;;;;4948759;29;20065;-89
2022/02/01 10:40:45;;;;;;;6.43;2.08;;;6.90;99.90;;;;;;4968585;28;20027;-90
2022/02/01 10:43:29;;;;;;;5.57;2.50;;;7.00;99.90;;;;;;4937357;29;20058;-90
2022/02/01 10:46:12;;;;;;;6.47;2.33;;;7.00;99.90;;;;;;4941116;29;20027;-89
2022/02/01 10:48:45;;;;;;;5.55;1.95;;;7.10;99.90;;;;;;4942121;28;20043;-88
2022/02/01 10:51:16;;;;;;;5.93;2.05;;;7.10;99.90;;;;;;4961696;28;20335;-88
2022/02/01 10:53:43;;;;;;;6.22;1.88;;;7.10;99.90;;;;;;4965227;28;20042;-88
2022/02/01 10:56:20;;;;;;;6.13;1.88;;;7.10;99.90;;;;;;4969025;28;20031;-89
2022/02/01 10:58:48;;;;;;;6.32;2.28;;;7.20;99.90;;;;;;4940626;29;20472;-89
2022/02/01 11:01:14;;;;;;;5.63;2.00;;;7.20;99.90;;;;;;4957561;28;20490;-90
2022/02/01 11:03:46;;;;;;;5.82;2.00;;;7.20;99.90;;;;;;4949326;29;20039;-88
2022/02/01 11:06:13;;;;;;;6.22;2.03;;;7.20;99.90;;;;;;4959976;28;20039;-94
2022/02/01 11:08:45;;;;;;;6.15;2.00;;;7.30;99.90;;;;;;4958286;28;20023;-94
2022/02/01 11:11:17;;;;;;;6.28;2.20;;;7.30;99.90;;;;;;4959783;28;20095;-95
2022/02/01 11:13:44;;;;;;;;;;;7.40;99.90;;;;;;4972861;28;20123;-93
2022/02/01 11:16:21;;;;;;;8.23;2.38;;;7.50;99.90;;;;;;4966864;28;19917;-95
2022/02/01 11:19:01;;;;;;;5.95;2.30;;;7.50;99.90;;;;;;4962951;28;20044;-94
2022/02/01 11:21:29;;;;;;;9.25;2.53;;;7.50;99.90;;;;;;4957345;28;20023;-96
2022/02/01 11:26:30;;;;;;;7.50;2.50;;;7.60;99.90;;;;;;4961877;28;20043;-93
2022/02/01 11:29:12;;;;;;;9.02;2.60;;;7.60;99.90;;;;;;4944994;29;20055;-92
2022/02/01 11:31:48;;;;;;;;;;;7.60;99.90;;;;;;4959072;28;20054;-90
2022/02/01 11:34:25;;;;;;;9.05;2.80;;;7.60;99.90;;;;;;4959768;28;20215;-95
2022/02/01 11:36:59;;;;;;;7.00;2.58;;;7.70;99.90;;;;;;4950185;29;20085;-94
2022/02/01 11:39:25;;;;;;;6.68;2.38;;;7.70;99.90;;;;;;4963981;28;20036;-94
2022/02/01 11:41:53;;;;;;;6.25;2.33;;;7.70;99.90;;;;;;4943989;28;20123;-92
2022/02/01 11:44:34;;;;;;;6.45;2.17;;;7.70;99.90;;;;;;4955647;28;20027;-92
2022/02/01 11:47:07;;;;;;;6.80;2.40;;;7.80;99.90;;;;;;4947336;28;20435;-92
2022/02/01 11:49:34;;;;;;;5.57;2.28;;;7.80;99.90;;;;;;4961271;28;20283;-91
2022/02/01 11:52:14;;;;;;;8.48;2.30;;;7.80;99.90;;;;;;4945125;28;20038;-93
2022/02/01 11:54:42;;;;;;;6.63;2.47;;;7.80;99.90;;;;;;4952603;28;20043;-91
2022/02/01 11:57:30;;;;;;;7.38;2.25;;;7.80;99.90;;;;;;4949434;28;20031;-90
2022/02/01 12:00:02;;;;;;;7.20;2.70;;;7.80;99.90;;;;;;4967971;28;20107;-92
2022/02/01 12:02:37;;;;;;;10.10;2.97;;;7.80;99.90;;;;;;4957851;28;20051;-92
2022/02/01 12:05:12;;;;;;;10.13;3.05;;;7.80;99.90;;;;;;4957464;28;20023;-92
2022/02/01 12:07:46;;;;;;;10.75;3.47;;;7.90;99.90;;;;;;4962810;28;20027;-91
2022/02/01 12:10:17;;;;;;;12.65;3.90;;;7.90;99.90;;;;;;4946062;28;20043;-92
2022/02/01 12:12:43;;;;;;;14.90;4.07;;;7.90;99.90;;;;;;4974935;28;20038;-91
2022/02/01 12:15:09;;;;;;;12.07;3.85;;;7.90;99.90;;;;;;4947206;28;20031;-95
2022/02/01 12:17:40;;;;;;;13.07;4.30;;;7.90;99.90;;;;;;4967740;28;20079;-93
2022/02/01 12:20:13;;;;;;;13.97;4.50;;;8.00;99.90;;;;;;4966951;28;20059;-93
2022/02/01 12:22:50;;;;;;;15.82;4.90;;;8.00;99.90;;;;;;4963172;28;20279;-87
2022/02/01 12:25:15;;;;;;;17.67;5.13;;;8.00;99.90;;;;;;4963868;28;20122;-87
2022/02/01 12:27:45;;;;;;;15.25;4.97;;;8.00;99.90;;;;;;4944884;28;20063;-88
2022/02/01 12:30:12;;;;;;;18.05;5.68;;;8.10;99.90;;;;;;4956801;28;20043;-86
2022/02/01 12:32:53;;;;;;;15.80;5.30;;;8.10;99.90;;;;;;4947119;28;20026;-87
2022/02/01 12:35:34;;;;;;;16.50;5.55;;;8.10;99.90;;;;;;4948285;28;20015;-86
2022/02/01 12:38:10;;;;;;;16.95;4.25;;;8.10;99.90;;;;;;4961434;28;20095;-87
2022/02/01 12:40:37;;;;;;;21.13;4.95;;;8.20;99.90;;;;;;4938821;28;20062;-88
2022/02/01 12:43:15;;;;;;;20.20;5.03;;;8.10;99.90;;;;;;4943540;28;20407;-87
2022/02/01 12:46:00;;;;;;;15.05;4.43;;;8.20;99.90;;;;;;4945435;28;20034;-89
2022/02/01 12:48:26;;;;;;;18.73;4.65;;;8.20;99.90;;;;;;4950814;28;20566;-89
2022/02/01 12:50:56;;;;;;;22.25;5.07;;;8.20;99.90;;;;;;4963782;28;20074;-89
2022/02/01 12:53:22;;;;;;;18.80;4.75;;;8.20;99.90;;;;;;4946390;28;20118;-89
2022/02/01 12:55:48;;;;;;;21.08;5.20;;;8.20;99.90;;;;;;4931264;28;20521;-89
2022/02/01 12:58:15;;;;;;;18.00;4.20;;;8.20;99.90;;;;;;4941948;28;20110;-86
2022/02/01 13:00:48;;;;;;;17.92;3.80;;;8.20;99.90;;;;;;4965654;28;20094;-87
2022/02/01 13:03:14;;;;;;;20.20;4.47;;;8.20;99.90;;;;;;4944447;28;20031;-88
2022/02/01 13:05:39;;;;;;;20.58;4.85;;;8.20;99.90;;;;;;4964839;28;20074;-87
2022/02/01 13:16:37;;;;;;;22.95;4.50;;;8.20;99.90;;;;;;4922746;29;20031;-88
2022/02/01 13:21:36;;;;;;;21.13;4.53;;;8.30;99.90;;;;;;4924310;29;20381;-90
2022/02/01 13:24:02;;;;;;;17.60;3.90;;;8.30;99.90;;;;;;4937789;29;20028;-93
2022/02/01 13:26:34;;;;;;;25.42;4.80;;;8.30;99.90;;;;;;4920290;29;20092;-90
2022/02/01 13:29:07;;;;;;;;;;;8.40;99.90;;;;;;4936554;29;20031;-90
2022/02/01 13:31:35;;;;;;;22.92;3.75;;;8.40;99.90;;;;;;4930609;29;19927;-92
2022/02/01 13:34:04;;;;;;;24.50;3.85;;;8.50;99.90;;;;;;4937775;29;20028;-93
2022/02/01 13:36:31;;;;;;;27.33;4.15;;;8.50;99.90;;;;;;4925533;29;20024;-93
2022/02/01 13:39:03;;;;;;;24.05;3.90;;;8.50;99.90;;;;;;4946498;29;20034;-94
2022/02/01 13:41:30;;;;;;;19.55;4.45;;;8.50;99.90;;;;;;4940976;29;20026;-94
2022/02/01 13:44:04;;;;;;;24.20;4.45;;;8.50;99.90;;;;;;4927913;29;20040;-95
2022/02/01 13:47:00;;;;;;;18.73;3.72;;;8.60;99.90;;;;;;4950855;29;20092;-96
2022/02/01 13:49:26;;;;;;;22.85;4.38;;;8.60;99.90;;;;;;4930717;29;20016;-94
2022/02/01 13:51:53;;;;;;;16.77;3.90;;;8.60;99.90;;;;;;4928345;29;20043;-92
2022/02/01 13:54:21;;;;;;;21.98;4.22;;;8.60;99.90;;;;;;4935681;29;20044;-93
2022/02/01 13:56:51;;;;;;;17.85;3.80;;;8.60;99.90;;;;;;4936348;29;20040;-93
2022/02/01 13:59:29;;;;;;;20.50;3.83;;;8.70;99.90;;;;;;4934259;29;20035;-96
2022/02/01 14:02:15;;;;;;;22.85;4.07;;;8.70;99.90;;;;;;4949542;29;20480;-94
2022/02/01 14:05:18;;;;;;;29.02;4.05;;;8.70;99.90;;;;;;4939902;29;20044;-93
2022/02/01 14:26:27;;;;;;;23.67;3.85;;;8.60;99.90;;;;;;4965380;28;20054;-93
2022/02/01 14:32:06;;;;;;;23.65;3.85;;;8.60;99.90;;;;;;4976842;28;20123;-93
2022/02/01 14:34:33;;;;;;;20.23;4.25;;;8.50;99.90;;;;;;4972243;28;20023;-92
2022/02/01 14:37:02;;;;;;;26.27;3.97;;;8.60;99.90;;;;;;4954724;28;20522;-92
2022/02/01 14:47:16;;;;;;;20.30;3.42;;;8.60;99.90;;;;;;4951890;29;20039;-92
2022/02/01 14:49:42;;;;;;;25.40;5.15;;;8.60;99.90;;;;;;4963594;28;20102;-92
2022/02/01 14:52:08;;;;;;;28.80;4.65;;;8.60;99.90;;;;;;4967775;28;20034;-95
2022/02/01 14:54:47;;;;;;;23.20;3.83;;;8.60;99.90;;;;;;4981216;28;20054;-96
2022/02/01 15:13:20;;;;;;;29.70;5.10;;;8.60;99.90;;;;;;4972446;29;20061;-91
2022/02/01 15:15:46;;;;;;;24.60;4.28;;;8.60;99.90;;;;;;4954641;29;20039;-95
2022/02/01 15:18:15;;;;;;;26.48;4.80;;;8.50;99.90;;;;;;4958798;29;20042;-95
2022/02/01 15:20:41;;;;;;;25.40;5.07;;;8.50;99.90;;;;;;4935690;29;20096;-95